createdAt,value
2022-08-27T00:01:55.866Z,19.05
2022-08-27T00:04:43.559Z,19.08
2022-08-27T00:07:31.014Z,19.09
2022-08-27T00:10:20.494Z,19.13
2022-08-27T00:13:07.613Z,19.12
2022-08-27T00:15:56.000Z,19.12
2022-08-27T00:18:48.043Z,19.13
2022-08-27T00:21:35.205Z,19.12
2022-08-27T00:24:21.967Z,19.11
2022-08-27T00:27:08.540Z,19.11
2022-08-27T00:29:56.107Z,19.12
2022-08-27T00:32:44.725Z,19.14
2022-08-27T00:35:31.821Z,19.16
2022-08-27T00:38:18.820Z,19.16
2022-08-27T00:41:06.916Z,19.15
2022-08-27T00:43:57.369Z,19.17
2022-08-27T00:46:47.301Z,19.19
2022-08-27T00:49:39.754Z,19.27
2022-08-27T00:52:30.246Z,19.23
2022-08-27T00:55:20.543Z,19.23
2022-08-27T00:58:12.257Z,19.23
2022-08-27T01:01:01.945Z,19.18
2022-08-27T01:03:53.707Z,19.23
2022-08-27T01:06:41.679Z,19.21
2022-08-27T01:09:29.643Z,19.26
2022-08-27T01:12:19.050Z,19.27
2022-08-27T01:15:22.184Z,19.30
2022-08-27T01:18:13.420Z,19.31
2022-08-27T01:21:07.753Z,19.35
2022-08-27T01:24:14.718Z,19.40
2022-08-27T01:27:04.768Z,19.37
2022-08-27T01:29:54.727Z,19.39
2022-08-27T01:32:42.328Z,19.38
2022-08-27T01:35:29.118Z,19.41
2022-08-27T01:38:18.970Z,19.44
2022-08-27T01:41:20.551Z,19.45
2022-08-27T01:44:08.511Z,19.49
2022-08-27T01:46:56.938Z,19.55
2022-08-27T01:49:44.080Z,19.53
2022-08-27T01:52:31.915Z,19.49
2022-08-27T01:55:21.787Z,19.52
2022-08-27T01:58:08.395Z,19.49
2022-08-27T02:01:05.543Z,19.48
2022-08-27T02:03:52.497Z,19.49
2022-08-27T02:06:39.367Z,19.49
2022-08-27T02:09:26.811Z,19.51
2022-08-27T02:12:14.215Z,19.50
2022-08-27T02:15:01.584Z,19.54
2022-08-27T02:17:49.711Z,19.52
2022-08-27T02:20:37.381Z,19.49
2022-08-27T02:23:23.903Z,19.46
2022-08-27T02:26:11.013Z,19.47
2022-08-27T02:28:57.597Z,19.45
2022-08-27T02:31:44.444Z,19.46
2022-08-27T02:34:32.500Z,19.45
2022-08-27T02:37:19.204Z,19.47
2022-08-27T02:40:08.213Z,19.48
2022-08-27T02:42:54.819Z,19.53
2022-08-27T02:45:41.412Z,19.55
2022-08-27T02:48:28.736Z,19.62
2022-08-27T02:51:16.908Z,19.63
2022-08-27T02:54:04.916Z,19.63
2022-08-27T02:56:55.764Z,19.54
2022-08-27T02:59:43.244Z,19.65
2022-08-27T03:02:30.208Z,19.67
2022-08-27T03:05:19.256Z,19.63
2022-08-27T03:08:08.011Z,19.61
2022-08-27T03:10:55.256Z,19.60
2022-08-27T03:13:42.283Z,19.58
2022-08-27T03:16:29.533Z,19.56
2022-08-27T03:19:19.810Z,19.55
2022-08-27T03:22:10.971Z,19.55
2022-08-27T03:24:58.754Z,19.55
2022-08-27T03:27:45.639Z,19.57
2022-08-27T03:30:32.695Z,19.58
2022-08-27T03:33:19.797Z,19.59
2022-08-27T03:36:08.801Z,19.62
2022-08-27T03:38:55.708Z,19.63
2022-08-27T03:41:55.478Z,19.71
2022-08-27T03:44:42.418Z,19.74
2022-08-27T03:47:29.125Z,19.81
2022-08-27T03:50:15.804Z,19.87
2022-08-27T03:53:02.576Z,19.95
2022-08-27T03:55:50.023Z,19.94
2022-08-27T03:58:38.961Z,19.89
2022-08-27T04:01:25.626Z,19.87
2022-08-27T04:04:14.156Z,19.95
2022-08-27T04:07:01.439Z,19.84
2022-08-27T04:09:47.905Z,19.75
2022-08-27T04:12:34.703Z,19.70
2022-08-27T04:15:22.671Z,19.72
2022-08-27T04:18:09.417Z,19.92
2022-08-27T04:20:56.855Z,19.92
2022-08-27T04:23:43.997Z,19.88
2022-08-27T04:26:30.908Z,19.86
2022-08-27T04:29:17.574Z,19.85
2022-08-27T04:32:06.560Z,20.00
2022-08-27T04:34:55.611Z,19.99
2022-08-27T04:37:42.371Z,19.94
2022-08-27T04:40:49.221Z,20.07
2022-08-27T04:43:35.653Z,20.07
2022-08-27T04:46:24.744Z,20.07
2022-08-27T04:49:16.482Z,20.03
2022-08-27T04:52:03.507Z,20.10
2022-08-27T04:54:51.681Z,20.06
2022-08-27T04:57:38.446Z,20.05
2022-08-27T05:00:25.447Z,20.10
2022-08-27T05:03:12.523Z,19.99
2022-08-27T05:06:07.230Z,19.92
2022-08-27T05:08:55.041Z,19.90
2022-08-27T05:11:42.821Z,19.97
2022-08-27T05:14:32.407Z,20.02
2022-08-27T05:17:18.885Z,20.08
2022-08-27T05:20:06.567Z,20.04
2022-08-27T05:22:55.395Z,19.98
2022-08-27T05:25:44.296Z,19.96
2022-08-27T05:28:30.856Z,19.99
2022-08-27T05:31:19.581Z,20.00
2022-08-27T05:34:10.254Z,20.07
2022-08-27T05:36:58.106Z,20.12
2022-08-27T05:39:46.222Z,20.08
2022-08-27T05:42:34.451Z,20.18
2022-08-27T05:45:21.109Z,20.10
2022-08-27T05:48:07.923Z,20.05
2022-08-27T05:50:54.780Z,20.02
2022-08-27T05:53:42.224Z,20.06
2022-08-27T05:56:32.050Z,20.06
2022-08-27T05:59:37.384Z,20.02
2022-08-27T06:02:24.387Z,20.10
2022-08-27T06:05:10.958Z,20.10
2022-08-27T06:07:57.386Z,20.10
2022-08-27T06:10:44.281Z,20.11
2022-08-27T06:13:33.495Z,20.12
2022-08-27T06:16:21.130Z,20.18
2022-08-27T06:19:09.000Z,20.16
2022-08-27T06:22:01.150Z,20.38
2022-08-27T06:24:57.288Z,20.37
2022-08-27T06:27:44.411Z,20.35
2022-08-27T06:30:32.383Z,20.38
2022-08-27T06:33:21.376Z,20.35
2022-08-27T06:36:10.700Z,20.40
2022-08-27T06:38:58.156Z,20.38
2022-08-27T06:41:45.127Z,20.35
2022-08-27T06:44:31.551Z,20.32
2022-08-27T06:47:21.303Z,20.34
2022-08-27T06:50:08.557Z,20.40
2022-08-27T06:52:55.175Z,20.38
2022-08-27T06:55:43.684Z,20.34
2022-08-27T06:58:30.228Z,20.34
2022-08-27T07:01:19.531Z,20.42
2022-08-27T07:04:10.402Z,20.40
2022-08-27T07:06:57.301Z,20.42
2022-08-27T07:09:43.989Z,20.39
2022-08-27T07:12:30.890Z,20.41
2022-08-27T07:15:18.429Z,20.43
2022-08-27T07:18:08.866Z,20.60
2022-08-27T07:20:58.916Z,20.49
2022-08-27T07:23:45.623Z,20.52
2022-08-27T07:26:34.786Z,20.66
2022-08-27T07:29:21.598Z,20.67
2022-08-27T07:32:08.139Z,20.60
2022-08-27T07:34:54.953Z,20.74
2022-08-27T07:37:43.273Z,20.68
2022-08-27T07:40:30.117Z,20.61
2022-08-27T07:43:34.794Z,20.71
2022-08-27T07:46:21.995Z,20.64
2022-08-27T07:49:08.481Z,20.52
2022-08-27T07:51:55.256Z,20.74
2022-08-27T07:54:43.512Z,20.75
2022-08-27T07:57:31.630Z,20.73
2022-08-27T08:00:18.208Z,20.73
2022-08-27T08:03:05.119Z,20.66
2022-08-27T08:05:53.388Z,20.59
2022-08-27T08:08:41.752Z,20.53
2022-08-27T08:11:32.008Z,20.61
2022-08-27T08:14:19.524Z,20.64
2022-08-27T08:17:06.472Z,20.60
2022-08-27T08:20:18.481Z,20.54
2022-08-27T08:23:04.598Z,20.49
2022-08-27T08:25:57.768Z,20.65
2022-08-27T08:28:46.436Z,20.75
2022-08-27T08:31:32.828Z,20.83
2022-08-27T08:34:20.476Z,20.81
2022-08-27T08:37:07.666Z,21.02
2022-08-27T08:39:55.105Z,21.06
2022-08-27T08:42:50.669Z,21.06
2022-08-27T08:45:43.422Z,20.98
2022-08-27T08:48:32.457Z,21.06
2022-08-27T08:51:26.646Z,21.08
2022-08-27T08:54:17.897Z,21.05
2022-08-27T08:57:09.292Z,21.13
2022-08-27T09:00:01.760Z,21.21
2022-08-27T09:02:54.902Z,21.19
2022-08-27T09:05:46.910Z,21.42
2022-08-27T09:08:40.649Z,21.29
2022-08-27T09:11:35.220Z,21.41
2022-08-27T09:14:37.083Z,21.34
2022-08-27T09:17:24.384Z,21.48
2022-08-27T09:20:14.510Z,21.40
2022-08-27T09:23:11.883Z,21.47
2022-08-27T09:25:58.773Z,21.41
2022-08-27T09:29:03.015Z,21.57
2022-08-27T09:31:55.683Z,21.67
2022-08-27T09:34:44.608Z,21.66
2022-08-27T09:37:34.990Z,21.72
2022-08-27T09:40:29.763Z,21.75
2022-08-27T09:43:24.364Z,21.74
2022-08-27T09:46:20.524Z,21.73
2022-08-27T09:49:12.434Z,21.70
2022-08-27T09:51:59.725Z,21.76
2022-08-27T09:54:48.266Z,21.68
2022-08-27T09:57:36.988Z,21.62
2022-08-27T10:00:34.673Z,21.64
2022-08-27T10:03:23.656Z,21.53
2022-08-27T10:06:11.089Z,21.51
2022-08-27T10:09:06.490Z,21.38
2022-08-27T10:12:01.001Z,21.28
2022-08-27T10:14:52.501Z,21.36
2022-08-27T10:17:47.654Z,21.53
2022-08-27T10:20:44.871Z,21.59
2022-08-27T10:23:40.986Z,21.66
2022-08-27T10:26:33.703Z,21.51
2022-08-27T10:29:34.129Z,21.43
2022-08-27T10:32:39.151Z,21.53
2022-08-27T10:35:29.813Z,21.83
2022-08-27T10:38:22.700Z,21.95
2022-08-27T10:41:17.544Z,21.98
2022-08-27T10:44:18.157Z,21.98
2022-08-27T10:47:18.173Z,22.07
2022-08-27T10:50:08.477Z,22.21
2022-08-27T10:53:01.305Z,22.39
2022-08-27T10:55:52.567Z,22.53
2022-08-27T10:58:49.931Z,22.60
2022-08-27T11:01:47.767Z,22.96
2022-08-27T11:04:40.854Z,23.25
2022-08-27T11:07:31.840Z,23.31
2022-08-27T11:10:23.350Z,23.30
2022-08-27T11:13:15.191Z,23.43
2022-08-27T11:16:04.019Z,23.30
2022-08-27T11:18:54.413Z,23.41
2022-08-27T11:21:47.918Z,23.56
2022-08-27T11:24:41.445Z,23.79
2022-08-27T11:27:33.912Z,23.80
2022-08-27T11:30:25.589Z,23.68
2022-08-27T11:33:20.372Z,23.77
2022-08-27T11:36:25.077Z,23.70
2022-08-27T11:39:25.891Z,23.70
2022-08-27T11:42:21.222Z,23.82
2022-08-27T11:45:16.817Z,23.82
2022-08-27T11:48:16.994Z,23.76
2022-08-27T11:51:06.998Z,23.71
2022-08-27T11:53:58.518Z,23.43
2022-08-27T11:56:46.826Z,23.08
2022-08-27T11:59:35.376Z,23.19
2022-08-27T12:02:26.173Z,23.06
2022-08-27T12:05:26.629Z,23.24
2022-08-27T12:08:18.849Z,23.23
2022-08-27T12:11:26.566Z,23.07
2022-08-27T12:14:32.339Z,23.04
2022-08-27T12:17:28.022Z,23.03
2022-08-27T12:20:25.338Z,23.20
2022-08-27T12:23:36.955Z,23.15
2022-08-27T12:26:32.795Z,23.19
2022-08-27T12:29:32.807Z,23.10
2022-08-27T12:32:27.151Z,23.18
2022-08-27T12:35:18.519Z,23.12
2022-08-27T12:38:14.810Z,22.89
2022-08-27T12:41:05.668Z,22.94
2022-08-27T12:44:03.156Z,22.83
2022-08-27T12:46:54.432Z,22.88
2022-08-27T12:49:46.675Z,22.77
2022-08-27T12:53:06.598Z,23.08
2022-08-27T12:56:04.063Z,23.26
2022-08-27T12:58:57.099Z,23.14
2022-08-27T13:01:59.742Z,23.09
2022-08-27T13:04:48.115Z,23.14
2022-08-27T13:07:41.549Z,23.53
2022-08-27T13:10:31.663Z,23.63
2022-08-27T13:13:20.926Z,23.69
2022-08-27T13:16:07.939Z,23.73
2022-08-27T13:18:55.939Z,23.66
2022-08-27T13:21:48.226Z,23.53
2022-08-27T13:24:37.082Z,23.67
2022-08-27T13:27:29.939Z,23.28
2022-08-27T13:30:19.859Z,23.19
2022-08-27T13:33:25.439Z,23.22
2022-08-27T13:36:13.396Z,23.37
2022-08-27T13:39:00.579Z,23.50
2022-08-27T13:41:50.068Z,23.35
2022-08-27T13:44:38.708Z,23.40
2022-08-27T13:47:27.732Z,23.43
2022-08-27T13:50:22.806Z,23.54
2022-08-27T13:53:30.284Z,23.63
2022-08-27T13:56:28.916Z,23.74
2022-08-27T13:59:24.176Z,23.85
2022-08-27T14:02:22.840Z,23.86
2022-08-27T14:05:14.909Z,23.78
2022-08-27T14:08:14.500Z,23.74
2022-08-27T14:11:05.337Z,23.56
2022-08-27T14:13:52.949Z,23.45
2022-08-27T14:16:39.844Z,23.30
2022-08-27T14:19:33.307Z,23.18
2022-08-27T14:22:24.966Z,23.25
2022-08-27T14:25:15.656Z,23.33
2022-08-27T14:28:02.908Z,23.45
2022-08-27T14:30:53.599Z,23.57
2022-08-27T14:33:40.826Z,23.67
2022-08-27T14:36:33.637Z,23.79
2022-08-27T14:39:26.572Z,24.00
2022-08-27T14:42:17.613Z,23.95
2022-08-27T14:45:04.845Z,24.00
2022-08-27T14:47:52.808Z,23.97
2022-08-27T14:50:39.388Z,23.89
2022-08-27T14:53:27.032Z,23.96
2022-08-27T14:56:13.650Z,23.99
2022-08-27T14:59:01.744Z,24.04
2022-08-27T15:01:48.932Z,23.94
2022-08-27T15:04:36.152Z,23.88
2022-08-27T15:07:23.593Z,23.72
2022-08-27T15:10:12.747Z,23.56
2022-08-27T15:12:59.936Z,23.39
2022-08-27T15:15:48.477Z,23.34
2022-08-27T15:18:39.024Z,23.26
2022-08-27T15:21:26.441Z,23.24
2022-08-27T15:24:18.030Z,23.18
2022-08-27T15:27:05.172Z,23.12
2022-08-27T15:29:51.604Z,23.08
2022-08-27T15:32:45.209Z,23.11
2022-08-27T15:35:32.108Z,23.00
2022-08-27T15:38:18.789Z,22.90
2022-08-27T15:41:05.589Z,22.92
2022-08-27T15:43:52.693Z,22.97
2022-08-27T15:46:39.730Z,22.96
2022-08-27T15:49:28.027Z,23.00
2022-08-27T15:52:25.273Z,22.98
2022-08-27T15:55:32.076Z,23.17
2022-08-27T15:58:33.831Z,23.23
2022-08-27T16:01:38.650Z,23.39
2022-08-27T16:04:31.811Z,23.50
2022-08-27T16:07:21.441Z,23.24
2022-08-27T16:10:22.697Z,23.21
2022-08-27T16:13:12.246Z,23.18
2022-08-27T16:16:09.668Z,23.09
2022-08-27T16:19:16.039Z,23.02
2022-08-27T16:22:18.668Z,22.85
2022-08-27T16:25:30.923Z,22.94
2022-08-27T16:28:27.238Z,22.79
2022-08-27T16:31:22.522Z,22.78
2022-08-27T16:34:26.254Z,22.72
2022-08-27T16:37:29.836Z,22.76
2022-08-27T16:40:21.734Z,22.57
2022-08-27T16:43:13.649Z,22.57
2022-08-27T16:46:04.965Z,22.53
2022-08-27T16:49:12.159Z,22.34
2022-08-27T16:52:21.313Z,22.32
2022-08-27T16:55:16.501Z,22.28
2022-08-27T16:58:13.072Z,22.15
2022-08-27T17:01:10.422Z,22.00
2022-08-27T17:04:12.877Z,22.08
2022-08-27T17:07:03.162Z,21.83
2022-08-27T17:09:52.023Z,21.69
2022-08-27T17:12:41.193Z,21.64
2022-08-27T17:15:28.574Z,21.63
2022-08-27T17:18:17.698Z,21.56
2022-08-27T17:21:08.300Z,21.50
2022-08-27T17:23:59.740Z,21.40
2022-08-27T17:26:48.482Z,21.51
2022-08-27T17:29:38.163Z,21.44
2022-08-27T17:32:26.427Z,21.50
2022-08-27T17:35:15.905Z,21.40
2022-08-27T17:38:04.834Z,21.44
2022-08-27T17:40:54.308Z,21.47
2022-08-27T17:43:42.673Z,21.46
2022-08-27T17:46:31.302Z,21.34
2022-08-27T17:49:19.122Z,21.30
2022-08-27T17:52:10.743Z,21.39
2022-08-27T17:54:57.728Z,21.30
2022-08-27T17:57:44.762Z,21.33
2022-08-27T18:00:33.800Z,21.32
2022-08-27T18:03:21.866Z,21.22
2022-08-27T18:06:08.987Z,21.27
2022-08-27T18:08:55.608Z,21.17
2022-08-27T18:11:42.189Z,21.18
2022-08-27T18:14:28.803Z,21.15
2022-08-27T18:17:15.686Z,20.99
2022-08-27T18:20:05.650Z,21.02
2022-08-27T18:22:52.953Z,20.92
2022-08-27T18:25:40.443Z,20.79
2022-08-27T18:28:28.871Z,20.70
2022-08-27T18:31:18.908Z,20.60
2022-08-27T18:34:05.779Z,20.54
2022-08-27T18:36:53.700Z,20.59
2022-08-27T18:39:40.747Z,20.49
2022-08-27T18:42:40.150Z,20.45
2022-08-27T18:45:30.153Z,20.41
2022-08-27T18:48:21.990Z,20.39
2022-08-27T18:51:12.698Z,20.50
2022-08-27T18:54:03.628Z,20.35
2022-08-27T18:56:53.577Z,20.46
2022-08-27T18:59:42.381Z,20.32
2022-08-27T19:02:33.386Z,20.33
2022-08-27T19:05:24.988Z,20.45
2022-08-27T19:08:11.687Z,20.36
2022-08-27T19:10:59.793Z,20.41
2022-08-27T19:13:50.336Z,20.28
2022-08-27T19:16:42.972Z,20.42
2022-08-27T19:19:30.130Z,20.38
2022-08-27T19:22:16.758Z,20.25
2022-08-27T19:25:05.124Z,20.21
2022-08-27T19:27:54.497Z,20.13
2022-08-27T19:30:40.929Z,20.20
2022-08-27T19:33:27.595Z,20.21
2022-08-27T19:36:16.886Z,20.25
2022-08-27T19:39:04.392Z,20.12
2022-08-27T19:41:51.138Z,20.29
2022-08-27T19:44:39.212Z,20.31
2022-08-27T19:47:26.337Z,20.05
2022-08-27T19:50:16.222Z,20.12
2022-08-27T19:53:02.758Z,20.07
2022-08-27T19:55:49.584Z,20.10
2022-08-27T19:58:36.851Z,20.15
2022-08-27T20:01:25.019Z,20.10
2022-08-27T20:04:11.677Z,20.14
2022-08-27T20:06:58.302Z,20.09
2022-08-27T20:09:45.409Z,20.04
2022-08-27T20:12:33.425Z,20.05
2022-08-27T20:15:23.469Z,20.05
2022-08-27T20:18:15.879Z,20.05
2022-08-27T20:21:10.222Z,20.16
2022-08-27T20:23:59.202Z,20.06
2022-08-27T20:26:47.900Z,20.00
2022-08-27T20:29:36.398Z,20.05
2022-08-27T20:32:29.246Z,19.96
2022-08-27T20:35:18.545Z,20.04
2022-08-27T20:38:05.852Z,20.05
2022-08-27T20:40:53.247Z,20.01
2022-08-27T20:43:40.161Z,20.12
2022-08-27T20:46:30.629Z,20.21
2022-08-27T20:49:17.196Z,20.06
2022-08-27T20:52:08.618Z,20.05
2022-08-27T20:54:57.592Z,20.07
2022-08-27T20:58:06.932Z,20.03
2022-08-27T21:00:55.846Z,20.05
2022-08-27T21:03:42.469Z,19.98
2022-08-27T21:06:32.964Z,19.99
2022-08-27T21:09:21.528Z,19.99
2022-08-27T21:12:08.596Z,19.94
2022-08-27T21:14:56.463Z,19.95
2022-08-27T21:17:43.900Z,20.06
2022-08-27T21:20:30.590Z,20.01
2022-08-27T21:23:17.299Z,19.97
2022-08-27T21:26:09.947Z,19.86
2022-08-27T21:28:57.123Z,19.79
2022-08-27T21:31:43.790Z,19.75
2022-08-27T21:34:31.204Z,19.89
2022-08-27T21:37:17.965Z,19.94
2022-08-27T21:40:06.782Z,19.83
2022-08-27T21:42:55.915Z,19.92
2022-08-27T21:45:43.108Z,19.92
2022-08-27T21:48:29.624Z,20.00
2022-08-27T21:51:24.491Z,19.92
2022-08-27T21:54:12.040Z,20.01
2022-08-27T21:56:58.575Z,19.82
2022-08-27T21:59:49.457Z,19.82
2022-08-27T22:02:40.202Z,19.76
2022-08-27T22:05:27.089Z,19.85
2022-08-27T22:08:16.783Z,19.91
2022-08-27T22:11:03.282Z,19.82
2022-08-27T22:13:50.112Z,19.76
2022-08-27T22:16:39.605Z,19.78
2022-08-27T22:19:26.569Z,19.77
2022-08-27T22:22:12.955Z,19.89
2022-08-27T22:25:00.240Z,19.72
2022-08-27T22:27:47.441Z,19.87
2022-08-27T22:30:34.009Z,19.90
2022-08-27T22:33:22.422Z,19.87
2022-08-27T22:36:09.727Z,19.88
2022-08-27T22:39:03.391Z,19.72
2022-08-27T22:41:50.387Z,19.75
2022-08-27T22:44:40.496Z,19.90
2022-08-27T22:47:26.963Z,19.82
2022-08-27T22:50:15.417Z,19.81
2022-08-27T22:53:04.632Z,19.83
2022-08-27T22:55:53.587Z,19.79
2022-08-27T22:58:46.054Z,19.89
2022-08-27T23:01:36.940Z,19.87
2022-08-27T23:04:39.259Z,19.87
2022-08-27T23:07:33.624Z,19.75
2022-08-27T23:10:25.754Z,19.78
2022-08-27T23:13:16.852Z,19.64
2022-08-27T23:16:06.465Z,19.62
2022-08-27T23:18:54.604Z,19.60
2022-08-27T23:21:42.605Z,19.56
2022-08-27T23:24:32.140Z,19.62
2022-08-27T23:27:31.347Z,19.60
2022-08-27T23:30:19.687Z,19.66
2022-08-27T23:33:07.787Z,19.64
2022-08-27T23:35:54.813Z,19.72
2022-08-27T23:38:41.583Z,19.82
2022-08-27T23:41:30.618Z,19.75
2022-08-27T23:44:17.106Z,19.71
2022-08-27T23:47:04.048Z,19.78
2022-08-27T23:49:51.215Z,19.67
2022-08-27T23:52:38.573Z,19.60
2022-08-27T23:55:25.660Z,19.63
2022-08-27T23:58:13.798Z,19.65
